Terminal Aerodrome Forecast
Issued by NWS

Home | Current Version | Previous Version | Graphics & Text | Print | Product List | Glossary On
Versions: 1 2 3 4 5 6 7 8 9 10 11 12 13 14 15 16
000
FTUS43 KMPX 211138
TAFAXN
TAF
KAXN 211138Z 2112/2212 14010KT P6SM BKN120
     FM212000 15015G23KT P6SM SCT100
     FM220000 18010KT P6SM BKN050
     FM220300 22006KT P6SM SCT090
     FM220600 29006KT P6SM SCT110
     FM220900 33005KT 4SM BR SCT140=

USA.gov is the U.S. government's official web portal to all federal, state and local government web resources and services.